sensor_id;sensor_type;location;lat;lon;timestamp;P1;durP1;ratioP1;P2;durP2;ratioP2
50858;SDS011;36826;47.514;19.056;2023-07-20T00:01:15;6.10;;;2.03;;
50858;SDS011;36826;47.514;19.056;2023-07-20T00:03:41;4.88;;;2.22;;
50858;SDS011;36826;47.514;19.056;2023-07-20T00:06:07;6.32;;;2.08;;
50858;SDS011;36826;47.514;19.056;2023-07-20T00:08:33;4.68;;;2.03;;
50858;SDS011;36826;47.514;19.056;2023-07-20T00:10:59;5.90;;;2.03;;
50858;SDS011;36826;47.514;19.056;2023-07-20T00:13:24;5.90;;;1.80;;
50858;SDS011;36826;47.514;19.056;2023-07-20T00:15:51;4.65;;;2.28;;
50858;SDS011;36826;47.514;19.056;2023-07-20T00:18:17;8.05;;;2.20;;
50858;SDS011;36826;47.514;19.056;2023-07-20T00:20:43;4.88;;;1.80;;
50858;SDS011;36826;47.514;19.056;2023-07-20T00:23:09;4.78;;;1.90;;
50858;SDS011;36826;47.514;19.056;2023-07-20T00:25:35;6.55;;;2.10;;
50858;SDS011;36826;47.514;19.056;2023-07-20T00:28:01;7.32;;;1.95;;
50858;SDS011;36826;47.514;19.056;2023-07-20T00:30:26;6.65;;;2.05;;
50858;SDS011;36826;47.514;19.056;2023-07-20T00:32:52;4.40;;;1.83;;
50858;SDS011;36826;47.514;19.056;2023-07-20T00:35:17;6.10;;;2.10;;
50858;SDS011;36826;47.514;19.056;2023-07-20T00:37:43;3.08;;;1.65;;
50858;SDS011;36826;47.514;19.056;2023-07-20T00:40:09;5.63;;;1.80;;
50858;SDS011;36826;47.514;19.056;2023-07-20T00:42:34;5.90;;;2.30;;
50858;SDS011;36826;47.514;19.056;2023-07-20T00:45:00;5.50;;;1.88;;
50858;SDS011;36826;47.514;19.056;2023-07-20T00:47:26;5.60;;;2.10;;
50858;SDS011;36826;47.514;19.056;2023-07-20T00:49:52;5.45;;;2.10;;
50858;SDS011;36826;47.514;19.056;2023-07-20T00:52:18;4.28;;;1.73;;
50858;SDS011;36826;47.514;19.056;2023-07-20T00:54:46;5.20;;;1.77;;
50858;SDS011;36826;47.514;19.056;2023-07-20T00:57:16;9.38;;;2.15;;
50858;SDS011;36826;47.514;19.056;2023-07-20T00:59:42;4.20;;;1.80;;
50858;SDS011;36826;47.514;19.056;2023-07-20T01:02:08;4.85;;;1.90;;
50858;SDS011;36826;47.514;19.056;2023-07-20T01:04:34;5.15;;;1.98;;
50858;SDS011;36826;47.514;19.056;2023-07-20T01:07:01;3.05;;;1.75;;
50858;SDS011;36826;47.514;19.056;2023-07-20T01:09:39;7.30;;;1.73;;
50858;SDS011;36826;47.514;19.056;2023-07-20T01:15:01;5.03;;;1.98;;
50858;SDS011;36826;47.514;19.056;2023-07-20T01:17:26;5.72;;;2.10;;
50858;SDS011;36826;47.514;19.056;2023-07-20T01:19:52;4.55;;;1.98;;
50858;SDS011;36826;47.514;19.056;2023-07-20T01:28:32;3.35;;;1.67;;
50858;SDS011;36826;47.514;19.056;2023-07-20T01:31:37;5.63;;;1.77;;
50858;SDS011;36826;47.514;19.056;2023-07-20T01:33:59;6.50;;;1.83;;
50858;SDS011;36826;47.514;19.056;2023-07-20T01:36:27;5.28;;;1.95;;
50858;SDS011;36826;47.514;19.056;2023-07-20T01:38:55;4.85;;;1.80;;
50858;SDS011;36826;47.514;19.056;2023-07-20T01:41:21;6.78;;;1.90;;
50858;SDS011;36826;47.514;19.056;2023-07-20T01:43:47;4.80;;;1.90;;
50858;SDS011;36826;47.514;19.056;2023-07-20T01:46:13;4.65;;;1.88;;
50858;SDS011;36826;47.514;19.056;2023-07-20T01:48:39;6.40;;;2.17;;
50858;SDS011;36826;47.514;19.056;2023-07-20T01:51:04;4.15;;;1.90;;
50858;SDS011;36826;47.514;19.056;2023-07-20T01:53:29;5.70;;;1.88;;
50858;SDS011;36826;47.514;19.056;2023-07-20T01:55:56;9.82;;;2.33;;
50858;SDS011;36826;47.514;19.056;2023-07-20T01:58:22;4.68;;;1.90;;
50858;SDS011;36826;47.514;19.056;2023-07-20T02:00:47;4.30;;;1.83;;
50858;SDS011;36826;47.514;19.056;2023-07-20T02:03:13;4.35;;;1.90;;
50858;SDS011;36826;47.514;19.056;2023-07-20T02:05:39;4.45;;;2.00;;
50858;SDS011;36826;47.514;19.056;2023-07-20T02:08:04;8.85;;;2.13;;
50858;SDS011;36826;47.514;19.056;2023-07-20T02:10:30;4.78;;;1.88;;
50858;SDS011;36826;47.514;19.056;2023-07-20T02:12:55;4.70;;;1.60;;
50858;SDS011;36826;47.514;19.056;2023-07-20T02:15:21;5.22;;;2.00;;
50858;SDS011;36826;47.514;19.056;2023-07-20T02:17:47;3.78;;;1.92;;
50858;SDS011;36826;47.514;19.056;2023-07-20T02:20:12;4.65;;;1.83;;
50858;SDS011;36826;47.514;19.056;2023-07-20T02:22:38;5.47;;;1.90;;
50858;SDS011;36826;47.514;19.056;2023-07-20T02:25:04;4.68;;;2.03;;
50858;SDS011;36826;47.514;19.056;2023-07-20T02:27:30;4.72;;;2.17;;
50858;SDS011;36826;47.514;19.056;2023-07-20T02:29:56;5.40;;;2.17;;
50858;SDS011;36826;47.514;19.056;2023-07-20T02:32:21;7.65;;;2.30;;
50858;SDS011;36826;47.514;19.056;2023-07-20T02:34:47;5.47;;;2.10;;
50858;SDS011;36826;47.514;19.056;2023-07-20T02:37:13;6.40;;;2.50;;
50858;SDS011;36826;47.514;19.056;2023-07-20T02:39:41;4.78;;;1.90;;
50858;SDS011;36826;47.514;19.056;2023-07-20T02:42:07;5.68;;;1.83;;
50858;SDS011;36826;47.514;19.056;2023-07-20T02:44:32;4.65;;;2.10;;
50858;SDS011;36826;47.514;19.056;2023-07-20T02:46:57;5.28;;;2.10;;
50858;SDS011;36826;47.514;19.056;2023-07-20T02:49:23;5.88;;;2.28;;
50858;SDS011;36826;47.514;19.056;2023-07-20T02:51:48;6.78;;;2.10;;
50858;SDS011;36826;47.514;19.056;2023-07-20T02:54:14;5.13;;;2.00;;
50858;SDS011;36826;47.514;19.056;2023-07-20T02:56:40;5.22;;;2.15;;
50858;SDS011;36826;47.514;19.056;2023-07-20T02:59:05;4.75;;;2.08;;
50858;SDS011;36826;47.514;19.056;2023-07-20T03:01:31;5.45;;;2.13;;
50858;SDS011;36826;47.514;19.056;2023-07-20T03:03:57;5.38;;;1.98;;
50858;SDS011;36826;47.514;19.056;2023-07-20T03:06:22;6.35;;;1.80;;
50858;SDS011;36826;47.514;19.056;2023-07-20T03:08:48;6.00;;;2.33;;
50858;SDS011;36826;47.514;19.056;2023-07-20T03:11:17;4.80;;;1.80;;
50858;SDS011;36826;47.514;19.056;2023-07-20T03:13:43;3.63;;;2.17;;
50858;SDS011;36826;47.514;19.056;2023-07-20T03:16:10;6.05;;;2.13;;
50858;SDS011;36826;47.514;19.056;2023-07-20T03:18:40;10.98;;;5.35;;
50858;SDS011;36826;47.514;19.056;2023-07-20T03:21:09;4.18;;;1.75;;
50858;SDS011;36826;47.514;19.056;2023-07-20T03:23:39;4.10;;;1.70;;
50858;SDS011;36826;47.514;19.056;2023-07-20T03:26:05;4.95;;;2.05;;
50858;SDS011;36826;47.514;19.056;2023-07-20T03:28:33;5.38;;;1.80;;
50858;SDS011;36826;47.514;19.056;2023-07-20T03:30:59;4.68;;;1.98;;
50858;SDS011;36826;47.514;19.056;2023-07-20T03:33:26;4.05;;;1.92;;
50858;SDS011;36826;47.514;19.056;2023-07-20T03:35:54;4.75;;;1.58;;
50858;SDS011;36826;47.514;19.056;2023-07-20T03:38:20;6.43;;;1.60;;
50858;SDS011;36826;47.514;19.056;2023-07-20T03:40:50;5.50;;;1.85;;
50858;SDS011;36826;47.514;19.056;2023-07-20T03:43:23;3.65;;;1.70;;
50858;SDS011;36826;47.514;19.056;2023-07-20T03:45:50;4.78;;;1.52;;
50858;SDS011;36826;47.514;19.056;2023-07-20T03:48:17;7.00;;;2.50;;
50858;SDS011;36826;47.514;19.056;2023-07-20T03:50:47;5.82;;;2.13;;
50858;SDS011;36826;47.514;19.056;2023-07-20T03:53:14;3.57;;;2.07;;
50858;SDS011;36826;47.514;19.056;2023-07-20T03:55:40;4.55;;;1.90;;
50858;SDS011;36826;47.514;19.056;2023-07-20T03:58:16;4.85;;;1.90;;
50858;SDS011;36826;47.514;19.056;2023-07-20T04:00:45;6.75;;;2.00;;
50858;SDS011;36826;47.514;19.056;2023-07-20T04:03:13;3.60;;;1.80;;
50858;SDS011;36826;47.514;19.056;2023-07-20T04:05:39;5.68;;;1.90;;
50858;SDS011;36826;47.514;19.056;2023-07-20T04:08:04;4.57;;;1.90;;
50858;SDS011;36826;47.514;19.056;2023-07-20T04:10:30;3.45;;;1.65;;
50858;SDS011;36826;47.514;19.056;2023-07-20T04:12:55;3.20;;;1.58;;
50858;SDS011;36826;47.514;19.056;2023-07-20T04:15:21;4.03;;;1.90;;
50858;SDS011;36826;47.514;19.056;2023-07-20T04:17:46;3.60;;;1.83;;
50858;SDS011;36826;47.514;19.056;2023-07-20T04:20:12;3.92;;;1.63;;
50858;SDS011;36826;47.514;19.056;2023-07-20T04:22:38;3.97;;;1.92;;
50858;SDS011;36826;47.514;19.056;2023-07-20T04:25:03;3.58;;;1.80;;
50858;SDS011;36826;47.514;19.056;2023-07-20T04:27:30;6.30;;;1.73;;
50858;SDS011;36826;47.514;19.056;2023-07-20T04:29:56;4.65;;;2.33;;
50858;SDS011;36826;47.514;19.056;2023-07-20T04:32:25;3.50;;;1.95;;
50858;SDS011;36826;47.514;19.056;2023-07-20T04:34:51;6.22;;;2.28;;
50858;SDS011;36826;47.514;19.056;2023-07-20T04:37:17;3.63;;;1.90;;
50858;SDS011;36826;47.514;19.056;2023-07-20T04:39:43;6.50;;;1.58;;
50858;SDS011;36826;47.514;19.056;2023-07-20T04:42:08;4.15;;;1.90;;
50858;SDS011;36826;47.514;19.056;2023-07-20T04:44:33;5.75;;;3.00;;
50858;SDS011;36826;47.514;19.056;2023-07-20T04:46:59;4.45;;;2.70;;
50858;SDS011;36826;47.514;19.056;2023-07-20T04:49:25;3.50;;;1.70;;
50858;SDS011;36826;47.514;19.056;2023-07-20T04:51:51;4.85;;;1.80;;
50858;SDS011;36826;47.514;19.056;2023-07-20T04:54:16;3.95;;;2.00;;
50858;SDS011;36826;47.514;19.056;2023-07-20T04:56:43;2.77;;;1.60;;
50858;SDS011;36826;47.514;19.056;2023-07-20T04:59:09;3.72;;;1.77;;
50858;SDS011;36826;47.514;19.056;2023-07-20T05:01:36;3.10;;;1.77;;
50858;SDS011;36826;47.514;19.056;2023-07-20T05:04:02;2.40;;;1.70;;
50858;SDS011;36826;47.514;19.056;2023-07-20T05:06:27;2.58;;;1.90;;
50858;SDS011;36826;47.514;19.056;2023-07-20T05:08:53;3.47;;;2.10;;
50858;SDS011;36826;47.514;19.056;2023-07-20T05:11:18;4.78;;;1.85;;
50858;SDS011;36826;47.514;19.056;2023-07-20T05:13:44;3.83;;;1.63;;
50858;SDS011;36826;47.514;19.056;2023-07-20T05:16:10;4.03;;;1.70;;
50858;SDS011;36826;47.514;19.056;2023-07-20T05:18:37;4.07;;;1.80;;
50858;SDS011;36826;47.514;19.056;2023-07-20T05:21:03;3.72;;;1.77;;
50858;SDS011;36826;47.514;19.056;2023-07-20T05:25:56;3.40;;;1.70;;
50858;SDS011;36826;47.514;19.056;2023-07-20T05:28:22;4.10;;;1.87;;
50858;SDS011;36826;47.514;19.056;2023-07-20T05:30:52;6.43;;;2.00;;
50858;SDS011;36826;47.514;19.056;2023-07-20T05:33:18;5.68;;;2.03;;
50858;SDS011;36826;47.514;19.056;2023-07-20T05:35:44;3.40;;;2.20;;
50858;SDS011;36826;47.514;19.056;2023-07-20T05:38:10;3.15;;;1.90;;
50858;SDS011;36826;47.514;19.056;2023-07-20T05:40:42;5.25;;;2.00;;
50858;SDS011;36826;47.514;19.056;2023-07-20T05:43:09;4.25;;;2.17;;
50858;SDS011;36826;47.514;19.056;2023-07-20T05:45:35;3.20;;;1.90;;
50858;SDS011;36826;47.514;19.056;2023-07-20T05:48:01;3.67;;;1.90;;
50858;SDS011;36826;47.514;19.056;2023-07-20T05:50:28;4.03;;;2.28;;
50858;SDS011;36826;47.514;19.056;2023-07-20T05:52:54;3.17;;;1.92;;
50858;SDS011;36826;47.514;19.056;2023-07-20T05:55:20;6.57;;;2.15;;
50858;SDS011;36826;47.514;19.056;2023-07-20T05:57:46;3.80;;;2.00;;
50858;SDS011;36826;47.514;19.056;2023-07-20T06:00:13;4.18;;;1.98;;
50858;SDS011;36826;47.514;19.056;2023-07-20T06:02:40;3.95;;;2.50;;
50858;SDS011;36826;47.514;19.056;2023-07-20T06:05:08;3.40;;;2.00;;
50858;SDS011;36826;47.514;19.056;2023-07-20T06:07:36;3.42;;;1.95;;
50858;SDS011;36826;47.514;19.056;2023-07-20T06:10:03;3.50;;;1.92;;
50858;SDS011;36826;47.514;19.056;2023-07-20T06:12:31;2.95;;;1.85;;
50858;SDS011;36826;47.514;19.056;2023-07-20T06:15:04;4.18;;;1.90;;
50858;SDS011;36826;47.514;19.056;2023-07-20T06:17:50;3.55;;;2.08;;
50858;SDS011;36826;47.514;19.056;2023-07-20T06:20:16;4.03;;;1.97;;
50858;SDS011;36826;47.514;19.056;2023-07-20T06:22:42;2.70;;;1.73;;
50858;SDS011;36826;47.514;19.056;2023-07-20T06:25:10;3.75;;;2.08;;
50858;SDS011;36826;47.514;19.056;2023-07-20T06:27:36;4.37;;;1.97;;
50858;SDS011;36826;47.514;19.056;2023-07-20T06:30:01;4.73;;;2.00;;
50858;SDS011;36826;47.514;19.056;2023-07-20T06:32:27;2.95;;;1.77;;
50858;SDS011;36826;47.514;19.056;2023-07-20T06:34:53;5.40;;;2.20;;
50858;SDS011;36826;47.514;19.056;2023-07-20T06:37:20;4.82;;;2.20;;
50858;SDS011;36826;47.514;19.056;2023-07-20T06:39:46;3.50;;;2.13;;
50858;SDS011;36826;47.514;19.056;2023-07-20T06:42:12;4.85;;;2.13;;
50858;SDS011;36826;47.514;19.056;2023-07-20T06:44:37;6.60;;;2.20;;
50858;SDS011;36826;47.514;19.056;2023-07-20T06:47:04;4.90;;;2.05;;
50858;SDS011;36826;47.514;19.056;2023-07-20T06:49:30;5.03;;;2.30;;
50858;SDS011;36826;47.514;19.056;2023-07-20T06:51:56;5.77;;;2.60;;
50858;SDS011;36826;47.514;19.056;2023-07-20T06:54:22;3.17;;;2.28;;
50858;SDS011;36826;47.514;19.056;2023-07-20T06:56:47;4.53;;;2.10;;
50858;SDS011;36826;47.514;19.056;2023-07-20T06:59:13;3.70;;;1.87;;
50858;SDS011;36826;47.514;19.056;2023-07-20T07:01:39;4.03;;;1.77;;
50858;SDS011;36826;47.514;19.056;2023-07-20T07:04:05;4.53;;;2.20;;
50858;SDS011;36826;47.514;19.056;2023-07-20T07:06:34;2.22;;;1.75;;
50858;SDS011;36826;47.514;19.056;2023-07-20T07:09:02;6.00;;;2.05;;
50858;SDS011;36826;47.514;19.056;2023-07-20T07:11:28;3.88;;;1.90;;
50858;SDS011;36826;47.514;19.056;2023-07-20T07:13:54;7.30;;;2.10;;
50858;SDS011;36826;47.514;19.056;2023-07-20T07:16:19;4.77;;;1.80;;
50858;SDS011;36826;47.514;19.056;2023-07-20T07:18:45;3.70;;;2.00;;
50858;SDS011;36826;47.514;19.056;2023-07-20T07:21:11;2.28;;;1.55;;
50858;SDS011;36826;47.514;19.056;2023-07-20T07:23:41;5.10;;;1.80;;
50858;SDS011;36826;47.514;19.056;2023-07-20T07:26:08;2.38;;;1.63;;
50858;SDS011;36826;47.514;19.056;2023-07-20T07:28:35;3.00;;;1.67;;
50858;SDS011;36826;47.514;19.056;2023-07-20T07:31:02;5.25;;;2.08;;
50858;SDS011;36826;47.514;19.056;2023-07-20T07:33:29;5.18;;;1.92;;
50858;SDS011;36826;47.514;19.056;2023-07-20T07:35:55;3.20;;;2.00;;
50858;SDS011;36826;47.514;19.056;2023-07-20T07:38:20;2.90;;;1.67;;
50858;SDS011;36826;47.514;19.056;2023-07-20T07:40:46;3.80;;;1.90;;
50858;SDS011;36826;47.514;19.056;2023-07-20T07:43:12;4.93;;;1.97;;
50858;SDS011;36826;47.514;19.056;2023-07-20T07:45:40;3.88;;;1.83;;
50858;SDS011;36826;47.514;19.056;2023-07-20T07:48:07;5.03;;;1.80;;
50858;SDS011;36826;47.514;19.056;2023-07-20T07:50:33;5.45;;;2.00;;
50858;SDS011;36826;47.514;19.056;2023-07-20T07:55:24;3.90;;;2.00;;
50858;SDS011;36826;47.514;19.056;2023-07-20T07:57:53;1.73;;;1.50;;
50858;SDS011;36826;47.514;19.056;2023-07-20T08:02:45;2.28;;;1.52;;
50858;SDS011;36826;47.514;19.056;2023-07-20T08:05:14;3.72;;;1.60;;
50858;SDS011;36826;47.514;19.056;2023-07-20T08:07:40;3.00;;;1.60;;
50858;SDS011;36826;47.514;19.056;2023-07-20T08:10:06;2.65;;;1.48;;
50858;SDS011;36826;47.514;19.056;2023-07-20T08:12:33;3.15;;;1.50;;
50858;SDS011;36826;47.514;19.056;2023-07-20T08:14:59;4.78;;;1.50;;
50858;SDS011;36826;47.514;19.056;2023-07-20T08:17:25;3.72;;;1.67;;
50858;SDS011;36826;47.514;19.056;2023-07-20T08:19:51;3.35;;;1.70;;
50858;SDS011;36826;47.514;19.056;2023-07-20T08:22:16;3.08;;;1.50;;
50858;SDS011;36826;47.514;19.056;2023-07-20T08:24:43;3.15;;;1.50;;
50858;SDS011;36826;47.514;19.056;2023-07-20T08:27:09;5.40;;;1.60;;
50858;SDS011;36826;47.514;19.056;2023-07-20T08:32:02;2.38;;;1.42;;
50858;SDS011;36826;47.514;19.056;2023-07-20T08:34:29;4.78;;;1.50;;
50858;SDS011;36826;47.514;19.056;2023-07-20T08:37:01;3.08;;;1.60;;
50858;SDS011;36826;47.514;19.056;2023-07-20T08:39:26;3.72;;;1.65;;
50858;SDS011;36826;47.514;19.056;2023-07-20T08:41:52;2.58;;;1.67;;
50858;SDS011;36826;47.514;19.056;2023-07-20T08:44:20;6.25;;;1.98;;
50858;SDS011;36826;47.514;19.056;2023-07-20T08:46:47;2.95;;;1.50;;
50858;SDS011;36826;47.514;19.056;2023-07-20T08:49:14;5.68;;;1.73;;
50858;SDS011;36826;47.514;19.056;2023-07-20T08:51:43;2.65;;;1.60;;
50858;SDS011;36826;47.514;19.056;2023-07-20T08:54:11;4.97;;;1.52;;
50858;SDS011;36826;47.514;19.056;2023-07-20T08:59:06;4.63;;;1.60;;
50858;SDS011;36826;47.514;19.056;2023-07-20T09:01:33;2.35;;;1.30;;
50858;SDS011;36826;47.514;19.056;2023-07-20T09:04:01;3.63;;;1.40;;
50858;SDS011;36826;47.514;19.056;2023-07-20T09:06:26;4.05;;;1.40;;
50858;SDS011;36826;47.514;19.056;2023-07-20T09:08:52;7.32;;;1.52;;
50858;SDS011;36826;47.514;19.056;2023-07-20T09:11:18;4.00;;;1.48;;
50858;SDS011;36826;47.514;19.056;2023-07-20T09:13:43;4.65;;;1.33;;
50858;SDS011;36826;47.514;19.056;2023-07-20T09:16:11;3.10;;;1.20;;
50858;SDS011;36826;47.514;19.056;2023-07-20T09:18:39;5.32;;;1.35;;
50858;SDS011;36826;47.514;19.056;2023-07-20T09:21:05;4.20;;;1.70;;
50858;SDS011;36826;47.514;19.056;2023-07-20T09:25:57;2.50;;;1.20;;
50858;SDS011;36826;47.514;19.056;2023-07-20T09:28:23;4.85;;;1.40;;
50858;SDS011;36826;47.514;19.056;2023-07-20T09:30:49;4.20;;;1.33;;
50858;SDS011;36826;47.514;19.056;2023-07-20T09:33:24;4.88;;;1.33;;
50858;SDS011;36826;47.514;19.056;2023-07-20T09:35:50;3.30;;;1.35;;
50858;SDS011;36826;47.514;19.056;2023-07-20T09:38:15;8.65;;;1.38;;
50858;SDS011;36826;47.514;19.056;2023-07-20T09:40:41;3.15;;;1.30;;
50858;SDS011;36826;47.514;19.056;2023-07-20T09:43:07;3.95;;;1.60;;
50858;SDS011;36826;47.514;19.056;2023-07-20T09:45:34;3.42;;;1.90;;
50858;SDS011;36826;47.514;19.056;2023-07-20T09:48:08;5.00;;;3.30;;
50858;SDS011;36826;47.514;19.056;2023-07-20T09:50:41;4.78;;;1.70;;
50858;SDS011;36826;47.514;19.056;2023-07-20T09:53:09;2.10;;;1.20;;
50858;SDS011;36826;47.514;19.056;2023-07-20T09:55:39;2.55;;;1.00;;
50858;SDS011;36826;47.514;19.056;2023-07-20T09:58:07;3.47;;;1.17;;
50858;SDS011;36826;47.514;19.056;2023-07-20T10:00:35;2.65;;;1.20;;
50858;SDS011;36826;47.514;19.056;2023-07-20T10:03:03;2.05;;;1.30;;
50858;SDS011;36826;47.514;19.056;2023-07-20T10:05:36;3.53;;;1.33;;
50858;SDS011;36826;47.514;19.056;2023-07-20T10:08:11;2.80;;;1.30;;
50858;SDS011;36826;47.514;19.056;2023-07-20T10:10:38;2.97;;;1.25;;
50858;SDS011;36826;47.514;19.056;2023-07-20T10:13:06;5.13;;;1.30;;
50858;SDS011;36826;47.514;19.056;2023-07-20T10:15:43;5.32;;;1.40;;
50858;SDS011;36826;47.514;19.056;2023-07-20T10:18:14;3.22;;;1.17;;
50858;SDS011;36826;47.514;19.056;2023-07-20T10:20:46;2.95;;;1.40;;
50858;SDS011;36826;47.514;19.056;2023-07-20T10:23:14;3.22;;;1.30;;
50858;SDS011;36826;47.514;19.056;2023-07-20T10:25:40;4.97;;;1.20;;
50858;SDS011;36826;47.514;19.056;2023-07-20T10:28:08;5.43;;;1.33;;
50858;SDS011;36826;47.514;19.056;2023-07-20T10:30:35;4.63;;;1.00;;
50858;SDS011;36826;47.514;19.056;2023-07-20T10:33:05;2.65;;;1.20;;
50858;SDS011;36826;47.514;19.056;2023-07-20T10:35:31;2.70;;;1.23;;
50858;SDS011;36826;47.514;19.056;2023-07-20T10:38:19;3.85;;;1.30;;
50858;SDS011;36826;47.514;19.056;2023-07-20T10:40:53;3.17;;;1.27;;
50858;SDS011;36826;47.514;19.056;2023-07-20T10:43:20;2.67;;;1.05;;
50858;SDS011;36826;47.514;19.056;2023-07-20T10:45:52;2.92;;;1.30;;
50858;SDS011;36826;47.514;19.056;2023-07-20T10:48:19;4.60;;;1.00;;
50858;SDS011;36826;47.514;19.056;2023-07-20T10:53:14;5.82;;;1.40;;
50858;SDS011;36826;47.514;19.056;2023-07-20T10:55:41;2.38;;;0.85;;
50858;SDS011;36826;47.514;19.056;2023-07-20T10:58:14;2.80;;;0.95;;
50858;SDS011;36826;47.514;19.056;2023-07-20T11:03:38;4.00;;;0.70;;
50858;SDS011;36826;47.514;19.056;2023-07-20T11:08:49;2.95;;;1.02;;
50858;SDS011;36826;47.514;19.056;2023-07-20T11:11:24;4.47;;;1.02;;
50858;SDS011;36826;47.514;19.056;2023-07-20T11:13:56;2.97;;;1.15;;
50858;SDS011;36826;47.514;19.056;2023-07-20T11:16:39;5.03;;;3.35;;
50858;SDS011;36826;47.514;19.056;2023-07-20T11:19:22;3.45;;;1.10;;
50858;SDS011;36826;47.514;19.056;2023-07-20T11:21:58;5.25;;;1.00;;
50858;SDS011;36826;47.514;19.056;2023-07-20T11:24:24;3.78;;;0.98;;
50858;SDS011;36826;47.514;19.056;2023-07-20T11:27:00;2.28;;;0.98;;
50858;SDS011;36826;47.514;19.056;2023-07-20T11:31:52;4.35;;;1.30;;
50858;SDS011;36826;47.514;19.056;2023-07-20T11:34:19;2.78;;;1.20;;
50858;SDS011;36826;47.514;19.056;2023-07-20T11:36:46;7.72;;;1.02;;
50858;SDS011;36826;47.514;19.056;2023-07-20T11:39:14;5.22;;;0.88;;
50858;SDS011;36826;47.514;19.056;2023-07-20T11:41:45;3.78;;;0.85;;
50858;SDS011;36826;47.514;19.056;2023-07-20T11:44:12;3.70;;;1.00;;
50858;SDS011;36826;47.514;19.056;2023-07-20T11:46:40;3.05;;;1.00;;
50858;SDS011;36826;47.514;19.056;2023-07-20T11:49:07;2.40;;;1.40;;
50858;SDS011;36826;47.514;19.056;2023-07-20T11:51:33;4.72;;;1.10;;
50858;SDS011;36826;47.514;19.056;2023-07-20T11:54:01;1.95;;;0.80;;
50858;SDS011;36826;47.514;19.056;2023-07-20T11:56:27;2.20;;;1.20;;
50858;SDS011;36826;47.514;19.056;2023-07-20T11:58:56;5.72;;;1.20;;
50858;SDS011;36826;47.514;19.056;2023-07-20T12:01:24;3.38;;;1.02;;
50858;SDS011;36826;47.514;19.056;2023-07-20T12:03:54;2.75;;;0.80;;
50858;SDS011;36826;47.514;19.056;2023-07-20T12:06:24;4.07;;;1.08;;
50858;SDS011;36826;47.514;19.056;2023-07-20T12:08:54;3.55;;;1.00;;
50858;SDS011;36826;47.514;19.056;2023-07-20T12:14:03;5.30;;;1.10;;
50858;SDS011;36826;47.514;19.056;2023-07-20T12:16:34;3.33;;;0.80;;
50858;SDS011;36826;47.514;19.056;2023-07-20T12:19:01;2.80;;;0.80;;
50858;SDS011;36826;47.514;19.056;2023-07-20T12:21:33;1.80;;;1.10;;
50858;SDS011;36826;47.514;19.056;2023-07-20T12:24:02;2.47;;;0.80;;
50858;SDS011;36826;47.514;19.056;2023-07-20T12:26:29;3.85;;;1.10;;
50858;SDS011;36826;47.514;19.056;2023-07-20T12:28:56;3.28;;;1.17;;
50858;SDS011;36826;47.514;19.056;2023-07-20T12:31:22;3.15;;;0.90;;
50858;SDS011;36826;47.514;19.056;2023-07-20T12:36:14;2.80;;;1.00;;
50858;SDS011;36826;47.514;19.056;2023-07-20T12:38:40;2.97;;;0.80;;
50858;SDS011;36826;47.514;19.056;2023-07-20T12:41:07;2.50;;;0.90;;
50858;SDS011;36826;47.514;19.056;2023-07-20T12:43:34;2.50;;;0.60;;
50858;SDS011;36826;47.514;19.056;2023-07-20T12:46:00;3.22;;;0.77;;
50858;SDS011;36826;47.514;19.056;2023-07-20T12:48:43;5.53;;;3.83;;
50858;SDS011;36826;47.514;19.056;2023-07-20T12:51:08;1.55;;;0.65;;
50858;SDS011;36826;47.514;19.056;2023-07-20T12:53:36;2.55;;;0.85;;
50858;SDS011;36826;47.514;19.056;2023-07-20T12:56:02;2.75;;;0.95;;
50858;SDS011;36826;47.514;19.056;2023-07-20T12:58:29;2.60;;;0.90;;
50858;SDS011;36826;47.514;19.056;2023-07-20T13:00:56;1.90;;;0.90;;
50858;SDS011;36826;47.514;19.056;2023-07-20T13:03:22;2.47;;;0.80;;
50858;SDS011;36826;47.514;19.056;2023-07-20T13:05:47;1.35;;;0.55;;
50858;SDS011;36826;47.514;19.056;2023-07-20T13:08:14;4.18;;;0.90;;
50858;SDS011;36826;47.514;19.056;2023-07-20T13:10:40;9.65;;;0.85;;
50858;SDS011;36826;47.514;19.056;2023-07-20T13:13:06;1.95;;;0.73;;
50858;SDS011;36826;47.514;19.056;2023-07-20T13:15:39;3.10;;;0.75;;
50858;SDS011;36826;47.514;19.056;2023-07-20T13:18:06;1.92;;;0.70;;
50858;SDS011;36826;47.514;19.056;2023-07-20T13:20:32;3.20;;;0.80;;
50858;SDS011;36826;47.514;19.056;2023-07-20T13:22:57;2.13;;;0.85;;
50858;SDS011;36826;47.514;19.056;2023-07-20T13:25:23;2.75;;;0.95;;
50858;SDS011;36826;47.514;19.056;2023-07-20T13:27:49;5.57;;;4.10;;
50858;SDS011;36826;47.514;19.056;2023-07-20T13:30:15;3.10;;;0.88;;
50858;SDS011;36826;47.514;19.056;2023-07-20T13:32:43;3.45;;;1.20;;
50858;SDS011;36826;47.514;19.056;2023-07-20T13:35:11;3.05;;;0.90;;
50858;SDS011;36826;47.514;19.056;2023-07-20T13:37:37;2.75;;;0.70;;
50858;SDS011;36826;47.514;19.056;2023-07-20T13:40:02;1.05;;;0.50;;
50858;SDS011;36826;47.514;19.056;2023-07-20T13:44:55;2.53;;;0.80;;
50858;SDS011;36826;47.514;19.056;2023-07-20T13:47:21;2.60;;;0.70;;
50858;SDS011;36826;47.514;19.056;2023-07-20T13:49:47;4.05;;;0.70;;
50858;SDS011;36826;47.514;19.056;2023-07-20T13:52:12;2.78;;;0.90;;
50858;SDS011;36826;47.514;19.056;2023-07-20T13:54:39;2.67;;;0.80;;
50858;SDS011;36826;47.514;19.056;2023-07-20T13:57:05;2.25;;;1.00;;
50858;SDS011;36826;47.514;19.056;2023-07-20T13:59:31;3.17;;;0.70;;
50858;SDS011;36826;47.514;19.056;2023-07-20T14:01:56;2.03;;;0.70;;
50858;SDS011;36826;47.514;19.056;2023-07-20T14:04:22;3.10;;;0.82;;
50858;SDS011;36826;47.514;19.056;2023-07-20T14:06:47;1.50;;;0.90;;
50858;SDS011;36826;47.514;19.056;2023-07-20T14:09:13;2.55;;;0.60;;
50858;SDS011;36826;47.514;19.056;2023-07-20T14:11:39;2.50;;;0.80;;
50858;SDS011;36826;47.514;19.056;2023-07-20T14:14:04;3.88;;;0.90;;
50858;SDS011;36826;47.514;19.056;2023-07-20T14:16:30;2.00;;;0.77;;
50858;SDS011;36826;47.514;19.056;2023-07-20T14:18:57;3.58;;;0.70;;
50858;SDS011;36826;47.514;19.056;2023-07-20T14:21:23;2.97;;;0.82;;
50858;SDS011;36826;47.514;19.056;2023-07-20T14:23:50;3.03;;;0.80;;
50858;SDS011;36826;47.514;19.056;2023-07-20T14:26:18;1.77;;;0.73;;
50858;SDS011;36826;47.514;19.056;2023-07-20T14:28:43;1.98;;;0.70;;
50858;SDS011;36826;47.514;19.056;2023-07-20T14:31:09;1.90;;;0.60;;
50858;SDS011;36826;47.514;19.056;2023-07-20T14:33:34;2.00;;;0.80;;
50858;SDS011;36826;47.514;19.056;2023-07-20T14:36:00;3.78;;;0.70;;
50858;SDS011;36826;47.514;19.056;2023-07-20T14:38:27;3.15;;;0.80;;
50858;SDS011;36826;47.514;19.056;2023-07-20T14:40:53;3.13;;;0.57;;
50858;SDS011;36826;47.514;19.056;2023-07-20T14:43:19;1.20;;;0.68;;
50858;SDS011;36826;47.514;19.056;2023-07-20T14:45:44;2.30;;;0.52;;
50858;SDS011;36826;47.514;19.056;2023-07-20T14:48:10;1.52;;;0.75;;
50858;SDS011;36826;47.514;19.056;2023-07-20T14:50:36;1.85;;;0.75;;
50858;SDS011;36826;47.514;19.056;2023-07-20T14:53:02;3.60;;;0.80;;
50858;SDS011;36826;47.514;19.056;2023-07-20T14:55:28;3.97;;;0.70;;
50858;SDS011;36826;47.514;19.056;2023-07-20T14:57:53;2.05;;;0.63;;
50858;SDS011;36826;47.514;19.056;2023-07-20T15:00:19;2.78;;;0.70;;
50858;SDS011;36826;47.514;19.056;2023-07-20T15:02:45;2.58;;;0.68;;
50858;SDS011;36826;47.514;19.056;2023-07-20T15:05:11;1.88;;;1.00;;
50858;SDS011;36826;47.514;19.056;2023-07-20T15:07:37;3.35;;;0.80;;
50858;SDS011;36826;47.514;19.056;2023-07-20T15:10:03;2.20;;;0.65;;
50858;SDS011;36826;47.514;19.056;2023-07-20T15:12:30;3.03;;;0.70;;
50858;SDS011;36826;47.514;19.056;2023-07-20T15:15:06;3.40;;;0.77;;